sensor_id;sensor_type;location;lat;lon;timestamp;temperature;humidity
3758;DHT22;1894;51.038;13.692;2023-04-01T00:01:10;10.30;99.90
3758;DHT22;1894;51.038;13.692;2023-04-01T00:03:40;10.30;99.90
3758;DHT22;1894;51.038;13.692;2023-04-01T00:06:11;10.30;99.90
3758;DHT22;1894;51.038;13.692;2023-04-01T00:08:40;10.30;99.90
3758;DHT22;1894;51.038;13.692;2023-04-01T00:11:07;10.30;99.90
3758;DHT22;1894;51.038;13.692;2023-04-01T00:13:34;10.30;99.90
3758;DHT22;1894;51.038;13.692;2023-04-01T00:16:02;10.20;99.90
3758;DHT22;1894;51.038;13.692;2023-04-01T00:18:46;10.20;99.90
3758;DHT22;1894;51.038;13.692;2023-04-01T00:21:15;10.20;99.90
3758;DHT22;1894;51.038;13.692;2023-04-01T00:23:43;10.30;99.90
3758;DHT22;1894;51.038;13.692;2023-04-01T00:26:11;10.30;99.90
3758;DHT22;1894;51.038;13.692;2023-04-01T00:28:39;10.30;99.90
3758;DHT22;1894;51.038;13.692;2023-04-01T00:31:09;10.30;99.90
3758;DHT22;1894;51.038;13.692;2023-04-01T00:33:38;10.30;99.90
3758;DHT22;1894;51.038;13.692;2023-04-01T00:36:08;10.40;99.90
3758;DHT22;1894;51.038;13.692;2023-04-01T00:38:39;10.20;99.90
3758;DHT22;1894;51.038;13.692;2023-04-01T00:41:09;10.20;99.90
3758;DHT22;1894;51.038;13.692;2023-04-01T00:43:43;10.20;99.90
3758;DHT22;1894;51.038;13.692;2023-04-01T00:46:13;10.20;99.90
3758;DHT22;1894;51.038;13.692;2023-04-01T00:48:54;10.20;99.90
3758;DHT22;1894;51.038;13.692;2023-04-01T00:51:25;10.20;99.90
3758;DHT22;1894;51.038;13.692;2023-04-01T00:53:55;10.10;99.90
3758;DHT22;1894;51.038;13.692;2023-04-01T00:56:30;10.10;99.90
3758;DHT22;1894;51.038;13.692;2023-04-01T00:59:03;10.10;99.90
3758;DHT22;1894;51.038;13.692;2023-04-01T01:01:35;10.10;99.90
3758;DHT22;1894;51.038;13.692;2023-04-01T01:04:03;10.10;99.90
3758;DHT22;1894;51.038;13.692;2023-04-01T01:25:13;10.10;99.90
3758;DHT22;1894;51.038;13.692;2023-04-01T01:27:49;10.10;99.90
3758;DHT22;1894;51.038;13.692;2023-04-01T01:30:37;10.10;99.90
3758;DHT22;1894;51.038;13.692;2023-04-01T01:35:59;10.00;99.90
3758;DHT22;1894;51.038;13.692;2023-04-01T01:38:32;10.00;99.90
3758;DHT22;1894;51.038;13.692;2023-04-01T01:41:05;10.00;99.90
3758;DHT22;1894;51.038;13.692;2023-04-01T01:43:38;10.00;99.90
3758;DHT22;1894;51.038;13.692;2023-04-01T01:46:12;9.90;99.90
3758;DHT22;1894;51.038;13.692;2023-04-01T01:48:42;9.90;99.90
3758;DHT22;1894;51.038;13.692;2023-04-01T01:51:10;10.00;99.90
3758;DHT22;1894;51.038;13.692;2023-04-01T01:53:38;10.00;99.90
3758;DHT22;1894;51.038;13.692;2023-04-01T01:56:06;10.00;99.90
3758;DHT22;1894;51.038;13.692;2023-04-01T01:58:42;10.00;99.90
3758;DHT22;1894;51.038;13.692;2023-04-01T02:01:17;10.10;99.90
3758;DHT22;1894;51.038;13.692;2023-04-01T02:04:04;10.00;99.90
3758;DHT22;1894;51.038;13.692;2023-04-01T02:06:34;10.00;99.90
3758;DHT22;1894;51.038;13.692;2023-04-01T02:09:06;10.00;99.90
3758;DHT22;1894;51.038;13.692;2023-04-01T02:11:40;10.00;99.90
3758;DHT22;1894;51.038;13.692;2023-04-01T02:14:17;10.00;99.90
3758;DHT22;1894;51.038;13.692;2023-04-01T02:17:04;10.00;99.90
3758;DHT22;1894;51.038;13.692;2023-04-01T02:20:06;10.10;99.90
3758;DHT22;1894;51.038;13.692;2023-04-01T02:22:40;10.10;99.90
3758;DHT22;1894;51.038;13.692;2023-04-01T02:25:18;10.00;99.90
3758;DHT22;1894;51.038;13.692;2023-04-01T02:27:51;10.00;99.90
3758;DHT22;1894;51.038;13.692;2023-04-01T02:30:19;10.00;99.90
3758;DHT22;1894;51.038;13.692;2023-04-01T02:32:48;10.00;99.90
3758;DHT22;1894;51.038;13.692;2023-04-01T02:35:16;10.00;99.90
3758;DHT22;1894;51.038;13.692;2023-04-01T02:37:45;10.00;99.90
3758;DHT22;1894;51.038;13.692;2023-04-01T02:40:16;10.00;99.90
3758;DHT22;1894;51.038;13.692;2023-04-01T02:42:44;10.00;99.90
3758;DHT22;1894;51.038;13.692;2023-04-01T02:45:12;10.00;99.90
3758;DHT22;1894;51.038;13.692;2023-04-01T02:47:40;9.90;99.90
3758;DHT22;1894;51.038;13.692;2023-04-01T02:50:09;9.90;99.90
3758;DHT22;1894;51.038;13.692;2023-04-01T02:52:36;9.90;99.90
3758;DHT22;1894;51.038;13.692;2023-04-01T02:55:04;9.90;99.90
3758;DHT22;1894;51.038;13.692;2023-04-01T02:57:33;9.80;99.90
3758;DHT22;1894;51.038;13.692;2023-04-01T03:00:01;9.80;99.90
3758;DHT22;1894;51.038;13.692;2023-04-01T03:02:28;9.80;99.90
3758;DHT22;1894;51.038;13.692;2023-04-01T03:04:55;9.80;99.90
3758;DHT22;1894;51.038;13.692;2023-04-01T03:07:23;9.80;99.90
3758;DHT22;1894;51.038;13.692;2023-04-01T03:09:50;9.80;99.90
3758;DHT22;1894;51.038;13.692;2023-04-01T03:12:17;9.80;99.90
3758;DHT22;1894;51.038;13.692;2023-04-01T03:14:49;9.70;99.90
3758;DHT22;1894;51.038;13.692;2023-04-01T03:17:16;9.80;99.90
3758;DHT22;1894;51.038;13.692;2023-04-01T03:19:44;9.80;99.90
3758;DHT22;1894;51.038;13.692;2023-04-01T03:22:11;9.80;99.90
3758;DHT22;1894;51.038;13.692;2023-04-01T03:24:39;9.80;99.90
3758;DHT22;1894;51.038;13.692;2023-04-01T03:27:06;9.80;99.90
3758;DHT22;1894;51.038;13.692;2023-04-01T03:29:33;9.70;99.90
3758;DHT22;1894;51.038;13.692;2023-04-01T03:32:00;9.70;99.90
3758;DHT22;1894;51.038;13.692;2023-04-01T03:34:27;9.70;99.90
3758;DHT22;1894;51.038;13.692;2023-04-01T03:36:55;9.70;99.90
3758;DHT22;1894;51.038;13.692;2023-04-01T03:39:22;9.70;99.90
3758;DHT22;1894;51.038;13.692;2023-04-01T03:41:50;9.70;99.90
3758;DHT22;1894;51.038;13.692;2023-04-01T03:44:17;9.70;99.90
3758;DHT22;1894;51.038;13.692;2023-04-01T03:46:48;9.70;99.90
3758;DHT22;1894;51.038;13.692;2023-04-01T03:49:17;9.70;99.90
3758;DHT22;1894;51.038;13.692;2023-04-01T03:51:45;9.70;99.90
3758;DHT22;1894;51.038;13.692;2023-04-01T03:54:12;9.70;99.90
3758;DHT22;1894;51.038;13.692;2023-04-01T03:56:40;9.70;99.90
3758;DHT22;1894;51.038;13.692;2023-04-01T03:59:07;9.80;99.90
3758;DHT22;1894;51.038;13.692;2023-04-01T04:01:35;9.70;99.90
3758;DHT22;1894;51.038;13.692;2023-04-01T04:04:02;9.80;99.90
3758;DHT22;1894;51.038;13.692;2023-04-01T04:06:29;9.80;99.90
3758;DHT22;1894;51.038;13.692;2023-04-01T04:08:57;9.80;99.90
3758;DHT22;1894;51.038;13.692;2023-04-01T04:11:25;9.80;99.90
3758;DHT22;1894;51.038;13.692;2023-04-01T04:13:52;9.90;99.90
3758;DHT22;1894;51.038;13.692;2023-04-01T04:16:22;9.90;99.90
3758;DHT22;1894;51.038;13.692;2023-04-01T04:18:56;9.90;99.90
3758;DHT22;1894;51.038;13.692;2023-04-01T04:21:23;9.90;99.90
3758;DHT22;1894;51.038;13.692;2023-04-01T04:23:50;9.90;99.90
3758;DHT22;1894;51.038;13.692;2023-04-01T04:26:19;9.90;99.90
3758;DHT22;1894;51.038;13.692;2023-04-01T04:28:55;9.90;99.90
3758;DHT22;1894;51.038;13.692;2023-04-01T04:31:24;9.90;99.90
3758;DHT22;1894;51.038;13.692;2023-04-01T04:33:54;9.90;99.90
3758;DHT22;1894;51.038;13.692;2023-04-01T04:36:22;9.90;99.90
3758;DHT22;1894;51.038;13.692;2023-04-01T04:38:52;10.00;99.90
3758;DHT22;1894;51.038;13.692;2023-04-01T04:41:19;9.90;99.90
3758;DHT22;1894;51.038;13.692;2023-04-01T04:43:52;9.90;99.90
3758;DHT22;1894;51.038;13.692;2023-04-01T04:46:22;10.00;99.90
3758;DHT22;1894;51.038;13.692;2023-04-01T04:48:56;10.00;99.90
3758;DHT22;1894;51.038;13.692;2023-04-01T04:51:23;10.00;99.90
3758;DHT22;1894;51.038;13.692;2023-04-01T04:53:51;10.00;99.90
3758;DHT22;1894;51.038;13.692;2023-04-01T04:56:25;9.90;99.90
3758;DHT22;1894;51.038;13.692;2023-04-01T04:59:03;10.00;99.90
3758;DHT22;1894;51.038;13.692;2023-04-01T05:01:40;10.00;99.90
3758;DHT22;1894;51.038;13.692;2023-04-01T05:04:08;10.10;99.90
3758;DHT22;1894;51.038;13.692;2023-04-01T05:06:35;10.10;99.90
3758;DHT22;1894;51.038;13.692;2023-04-01T05:09:03;10.10;99.90
3758;DHT22;1894;51.038;13.692;2023-04-01T05:11:30;10.10;99.90
3758;DHT22;1894;51.038;13.692;2023-04-01T05:13:57;10.10;99.90
3758;DHT22;1894;51.038;13.692;2023-04-01T05:16:25;10.10;99.90
3758;DHT22;1894;51.038;13.692;2023-04-01T05:18:52;10.10;99.90
3758;DHT22;1894;51.038;13.692;2023-04-01T05:21:20;10.00;99.90
3758;DHT22;1894;51.038;13.692;2023-04-01T05:23:47;10.10;99.90
3758;DHT22;1894;51.038;13.692;2023-04-01T05:26:14;10.10;99.90
3758;DHT22;1894;51.038;13.692;2023-04-01T05:28:42;10.10;99.90
3758;DHT22;1894;51.038;13.692;2023-04-01T05:31:09;10.10;99.90
3758;DHT22;1894;51.038;13.692;2023-04-01T05:33:39;10.10;99.90
3758;DHT22;1894;51.038;13.692;2023-04-01T05:36:14;10.10;99.90
3758;DHT22;1894;51.038;13.692;2023-04-01T05:38:43;10.20;99.90
3758;DHT22;1894;51.038;13.692;2023-04-01T05:41:14;10.20;99.90
3758;DHT22;1894;51.038;13.692;2023-04-01T05:43:44;10.20;99.90
3758;DHT22;1894;51.038;13.692;2023-04-01T05:46:30;10.30;99.90
3758;DHT22;1894;51.038;13.692;2023-04-01T05:49:07;10.20;99.90
3758;DHT22;1894;51.038;13.692;2023-04-01T05:51:35;10.30;99.90
3758;DHT22;1894;51.038;13.692;2023-04-01T05:54:05;10.40;99.90
3758;DHT22;1894;51.038;13.692;2023-04-01T05:56:32;10.30;99.90
3758;DHT22;1894;51.038;13.692;2023-04-01T05:59:00;10.30;99.90
3758;DHT22;1894;51.038;13.692;2023-04-01T06:01:27;10.30;99.90
3758;DHT22;1894;51.038;13.692;2023-04-01T06:03:55;10.30;99.90
3758;DHT22;1894;51.038;13.692;2023-04-01T06:06:26;10.30;99.90
3758;DHT22;1894;51.038;13.692;2023-04-01T06:09:17;10.30;99.90
3758;DHT22;1894;51.038;13.692;2023-04-01T06:15:49;10.30;99.90
3758;DHT22;1894;51.038;13.692;2023-04-01T06:18:49;10.50;99.90
3758;DHT22;1894;51.038;13.692;2023-04-01T06:39:22;11.10;99.90
3758;DHT22;1894;51.038;13.692;2023-04-01T06:52:13;11.30;99.90
3758;DHT22;1894;51.038;13.692;2023-04-01T06:58:31;11.30;99.90
3758;DHT22;1894;51.038;13.692;2023-04-01T07:01:27;11.50;99.90
3758;DHT22;1894;51.038;13.692;2023-04-01T07:04:23;11.70;99.90
3758;DHT22;1894;51.038;13.692;2023-04-01T07:09:59;11.50;99.90
3758;DHT22;1894;51.038;13.692;2023-04-01T07:18:09;11.90;99.90
3758;DHT22;1894;51.038;13.692;2023-04-01T07:20:38;11.90;99.90
3758;DHT22;1894;51.038;13.692;2023-04-01T07:23:15;11.70;99.90
3758;DHT22;1894;51.038;13.692;2023-04-01T07:26:11;11.90;99.90
3758;DHT22;1894;51.038;13.692;2023-04-01T07:29:09;11.90;99.90
3758;DHT22;1894;51.038;13.692;2023-04-01T07:34:51;11.90;99.90
3758;DHT22;1894;51.038;13.692;2023-04-01T07:38:11;11.90;99.90
3758;DHT22;1894;51.038;13.692;2023-04-01T07:46:52;12.10;99.90
3758;DHT22;1894;51.038;13.692;2023-04-01T07:51:54;12.30;99.90
3758;DHT22;1894;51.038;13.692;2023-04-01T07:54:50;12.30;99.90
3758;DHT22;1894;51.038;13.692;2023-04-01T07:58:07;12.00;99.90
3758;DHT22;1894;51.038;13.692;2023-04-01T08:01:02;12.10;99.90
3758;DHT22;1894;51.038;13.692;2023-04-01T08:04:05;12.10;99.90
3758;DHT22;1894;51.038;13.692;2023-04-01T08:24:54;12.80;99.90
3758;DHT22;1894;51.038;13.692;2023-04-01T08:30:19;12.80;99.90
3758;DHT22;1894;51.038;13.692;2023-04-01T08:33:19;12.70;99.90
3758;DHT22;1894;51.038;13.692;2023-04-01T08:36:15;12.70;99.90
3758;DHT22;1894;51.038;13.692;2023-04-01T08:41:53;13.00;99.90
3758;DHT22;1894;51.038;13.692;2023-04-01T08:45:20;13.00;99.90
3758;DHT22;1894;51.038;13.692;2023-04-01T09:17:53;13.20;99.90
3758;DHT22;1894;51.038;13.692;2023-04-01T09:21:14;13.70;99.90
3758;DHT22;1894;51.038;13.692;2023-04-01T09:32:57;13.30;99.90
3758;DHT22;1894;51.038;13.692;2023-04-01T09:41:32;13.70;99.90
3758;DHT22;1894;51.038;13.692;2023-04-01T09:50:29;13.70;99.90
3758;DHT22;1894;51.038;13.692;2023-04-01T09:53:19;13.60;99.90
3758;DHT22;1894;51.038;13.692;2023-04-01T10:30:30;13.40;99.90
3758;DHT22;1894;51.038;13.692;2023-04-01T10:39:08;13.30;99.90
3758;DHT22;1894;51.038;13.692;2023-04-01T10:58:34;13.50;99.90
3758;DHT22;1894;51.038;13.692;2023-04-01T11:11:39;13.80;99.90
3758;DHT22;1894;51.038;13.692;2023-04-01T11:18:07;14.10;99.90
3758;DHT22;1894;51.038;13.692;2023-04-01T11:21:17;14.60;99.90
3758;DHT22;1894;51.038;13.692;2023-04-01T11:27:15;14.80;99.90
3758;DHT22;1894;51.038;13.692;2023-04-01T11:30:03;15.00;99.90
3758;DHT22;1894;51.038;13.692;2023-04-01T11:33:17;15.20;99.90
3758;DHT22;1894;51.038;13.692;2023-04-01T11:42:09;14.10;99.90
3758;DHT22;1894;51.038;13.692;2023-04-01T11:48:03;14.00;99.90
3758;DHT22;1894;51.038;13.692;2023-04-01T11:51:22;14.40;99.90
3758;DHT22;1894;51.038;13.692;2023-04-01T11:57:35;16.50;99.90
3758;DHT22;1894;51.038;13.692;2023-04-01T12:06:32;17.00;99.90
3758;DHT22;1894;51.038;13.692;2023-04-01T12:12:39;16.40;99.90
3758;DHT22;1894;51.038;13.692;2023-04-01T12:18:18;16.20;99.90
3758;DHT22;1894;51.038;13.692;2023-04-01T12:21:02;15.60;99.90
3758;DHT22;1894;51.038;13.692;2023-04-01T12:24:01;14.90;99.90
3758;DHT22;1894;51.038;13.692;2023-04-01T13:25:42;21.10;89.70
3758;DHT22;1894;51.038;13.692;2023-04-01T13:29:01;18.30;93.30
3758;DHT22;1894;51.038;13.692;2023-04-01T13:35:20;18.60;94.50
3758;DHT22;1894;51.038;13.692;2023-04-01T13:38:28;18.60;94.80
3758;DHT22;1894;51.038;13.692;2023-04-01T13:44:41;20.30;92.00
3758;DHT22;1894;51.038;13.692;2023-04-01T13:58:49;18.40;93.00
3758;DHT22;1894;51.038;13.692;2023-04-01T14:01:41;18.20;93.00
3758;DHT22;1894;51.038;13.692;2023-04-01T14:11:45;22.20;87.80
3758;DHT22;1894;51.038;13.692;2023-04-01T14:17:56;23.80;80.40
3758;DHT22;1894;51.038;13.692;2023-04-01T14:20:35;20.40;82.50
3758;DHT22;1894;51.038;13.692;2023-04-01T14:26:30;21.60;83.00
3758;DHT22;1894;51.038;13.692;2023-04-01T14:37:55;17.30;90.70
3758;DHT22;1894;51.038;13.692;2023-04-01T14:49:15;17.90;91.60
3758;DHT22;1894;51.038;13.692;2023-04-01T14:51:48;18.10;91.70
3758;DHT22;1894;51.038;13.692;2023-04-01T14:54:20;17.80;91.30
3758;DHT22;1894;51.038;13.692;2023-04-01T14:57:14;17.40;91.50
3758;DHT22;1894;51.038;13.692;2023-04-01T14:59:52;16.90;91.80
3758;DHT22;1894;51.038;13.692;2023-04-01T15:02:42;16.50;91.70
3758;DHT22;1894;51.038;13.692;2023-04-01T15:05:38;15.90;92.10
3758;DHT22;1894;51.038;13.692;2023-04-01T15:08:23;15.50;93.10
3758;DHT22;1894;51.038;13.692;2023-04-01T15:11:46;15.80;93.20
3758;DHT22;1894;51.038;13.692;2023-04-01T15:14:35;15.10;93.60
3758;DHT22;1894;51.038;13.692;2023-04-01T15:32:22;15.30;95.40
3758;DHT22;1894;51.038;13.692;2023-04-01T15:37:56;14.50;96.40
3758;DHT22;1894;51.038;13.692;2023-04-01T15:40:55;14.30;97.10
3758;DHT22;1894;51.038;13.692;2023-04-01T15:43:45;14.50;97.00
3758;DHT22;1894;51.038;13.692;2023-04-01T15:46:47;14.60;97.50
3758;DHT22;1894;51.038;13.692;2023-04-01T15:49:19;14.90;96.90
3758;DHT22;1894;51.038;13.692;2023-04-01T15:52:24;14.70;96.60
3758;DHT22;1894;51.038;13.692;2023-04-01T15:55:26;14.60;97.30
3758;DHT22;1894;51.038;13.692;2023-04-01T16:01:07;14.50;97.10
3758;DHT22;1894;51.038;13.692;2023-04-01T16:07:02;14.00;97.70
3758;DHT22;1894;51.038;13.692;2023-04-01T16:22:38;13.90;99.00
3758;DHT22;1894;51.038;13.692;2023-04-01T16:25:41;14.00;98.60
3758;DHT22;1894;51.038;13.692;2023-04-01T16:28:34;14.20;98.80
3758;DHT22;1894;51.038;13.692;2023-04-01T16:31:58;14.20;98.50
3758;DHT22;1894;51.038;13.692;2023-04-01T16:37:36;13.70;99.70
3758;DHT22;1894;51.038;13.692;2023-04-01T16:40:47;13.60;99.90
3758;DHT22;1894;51.038;13.692;2023-04-01T16:43:30;13.70;99.90
3758;DHT22;1894;51.038;13.692;2023-04-01T16:46:14;13.70;99.90
3758;DHT22;1894;51.038;13.692;2023-04-01T16:52:14;13.30;99.90
3758;DHT22;1894;51.038;13.692;2023-04-01T16:55:03;13.30;99.90
3758;DHT22;1894;51.038;13.692;2023-04-01T16:57:56;13.30;99.90
3758;DHT22;1894;51.038;13.692;2023-04-01T17:00:41;13.20;99.90
3758;DHT22;1894;51.038;13.692;2023-04-01T17:06:39;13.20;99.90
3758;DHT22;1894;51.038;13.692;2023-04-01T17:12:16;13.30;99.90
3758;DHT22;1894;51.038;13.692;2023-04-01T17:18:28;13.20;99.90
3758;DHT22;1894;51.038;13.692;2023-04-01T17:26:44;12.70;99.90
3758;DHT22;1894;51.038;13.692;2023-04-01T17:32:39;12.60;99.90
3758;DHT22;1894;51.038;13.692;2023-04-01T17:35:42;12.60;99.90
3758;DHT22;1894;51.038;13.692;2023-04-01T17:56:41;12.20;99.90
3758;DHT22;1894;51.038;13.692;2023-04-01T17:59:44;12.20;99.90
3758;DHT22;1894;51.038;13.692;2023-04-01T18:02:24;12.20;99.90
3758;DHT22;1894;51.038;13.692;2023-04-01T18:05:19;12.10;99.90
3758;DHT22;1894;51.038;13.692;2023-04-01T18:11:34;12.10;99.90
3758;DHT22;1894;51.038;13.692;2023-04-01T18:14:58;12.00;99.90
3758;DHT22;1894;51.038;13.692;2023-04-01T18:23:29;11.80;99.90
3758;DHT22;1894;51.038;13.692;2023-04-01T18:26:27;11.80;99.90
3758;DHT22;1894;51.038;13.692;2023-04-01T18:31:49;11.70;99.90
3758;DHT22;1894;51.038;13.692;2023-04-01T18:37:24;11.60;99.90
3758;DHT22;1894;51.038;13.692;2023-04-01T18:40:19;11.50;99.90
3758;DHT22;1894;51.038;13.692;2023-04-01T18:45:59;11.40;99.90
3758;DHT22;1894;51.038;13.692;2023-04-01T18:48:59;11.40;99.90
3758;DHT22;1894;51.038;13.692;2023-04-01T18:51:49;11.40;99.90
3758;DHT22;1894;51.038;13.692;2023-04-01T18:54:48;11.40;99.90
3758;DHT22;1894;51.038;13.692;2023-04-01T18:57:24;11.50;99.90
3758;DHT22;1894;51.038;13.692;2023-04-01T19:00:03;11.50;99.90
3758;DHT22;1894;51.038;13.692;2023-04-01T19:02:34;11.60;99.90
3758;DHT22;1894;51.038;13.692;2023-04-01T19:05:18;11.60;99.90
3758;DHT22;1894;51.038;13.692;2023-04-01T19:07:53;11.70;99.90
3758;DHT22;1894;51.038;13.692;2023-04-01T19:10:23;11.70;99.90
3758;DHT22;1894;51.038;13.692;2023-04-01T19:16:00;11.80;99.90
3758;DHT22;1894;51.038;13.692;2023-04-01T19:19:18;11.80;99.90
3758;DHT22;1894;51.038;13.692;2023-04-01T19:22:27;11.80;99.90
3758;DHT22;1894;51.038;13.692;2023-04-01T19:31:02;11.60;99.90
3758;DHT22;1894;51.038;13.692;2023-04-01T19:36:53;11.70;99.90
3758;DHT22;1894;51.038;13.692;2023-04-01T19:50:39;11.70;99.90
3758;DHT22;1894;51.038;13.692;2023-04-01T19:56:23;11.70;99.90
3758;DHT22;1894;51.038;13.692;2023-04-01T20:04:53;11.80;99.90
3758;DHT22;1894;51.038;13.692;2023-04-01T20:07:41;11.90;99.90
3758;DHT22;1894;51.038;13.692;2023-04-01T20:10:18;11.90;99.90
3758;DHT22;1894;51.038;13.692;2023-04-01T20:16:06;11.90;99.90
3758;DHT22;1894;51.038;13.692;2023-04-01T20:18:56;11.90;99.90
3758;DHT22;1894;51.038;13.692;2023-04-01T20:21:35;11.90;99.90
3758;DHT22;1894;51.038;13.692;2023-04-01T20:24:23;11.90;99.90
3758;DHT22;1894;51.038;13.692;2023-04-01T20:44:02;11.60;99.90
3758;DHT22;1894;51.038;13.692;2023-04-01T20:47:41;11.60;99.90
3758;DHT22;1894;51.038;13.692;2023-04-01T20:49:50;11.70;99.90
3758;DHT22;1894;51.038;13.692;2023-04-01T20:52:41;11.70;99.90
3758;DHT22;1894;51.038;13.692;2023-04-01T21:03:41;11.80;99.90
3758;DHT22;1894;51.038;13.692;2023-04-01T21:14:49;11.60;99.90
3758;DHT22;1894;51.038;13.692;2023-04-01T21:21:05;11.60;99.90
3758;DHT22;1894;51.038;13.692;2023-04-01T21:26:26;11.60;99.90
3758;DHT22;1894;51.038;13.692;2023-04-01T21:34:59;11.30;99.90
3758;DHT22;1894;51.038;13.692;2023-04-01T21:40:42;11.20;99.90
3758;DHT22;1894;51.038;13.692;2023-04-01T21:46:48;11.20;99.90
3758;DHT22;1894;51.038;13.692;2023-04-01T22:07:29;10.80;99.90
3758;DHT22;1894;51.038;13.692;2023-04-01T22:11:03;10.80;99.90
3758;DHT22;1894;51.038;13.692;2023-04-01T22:13:34;10.70;99.90
3758;DHT22;1894;51.038;13.692;2023-04-01T22:32:08;10.40;99.90
3758;DHT22;1894;51.038;13.692;2023-04-01T22:37:40;10.40;99.90
3758;DHT22;1894;51.038;13.692;2023-04-01T22:40:24;10.30;99.90
3758;DHT22;1894;51.038;13.692;2023-04-01T22:43:13;10.40;99.90
3758;DHT22;1894;51.038;13.692;2023-04-01T22:48:36;10.40;99.90
3758;DHT22;1894;51.038;13.692;2023-04-01T22:51:38;10.30;99.90
3758;DHT22;1894;51.038;13.692;2023-04-01T22:57:02;10.20;99.90
3758;DHT22;1894;51.038;13.692;2023-04-01T23:02:28;10.10;99.90
3758;DHT22;1894;51.038;13.692;2023-04-01T23:05:00;10.10;99.90
3758;DHT22;1894;51.038;13.692;2023-04-01T23:07:48;10.10;99.90
3758;DHT22;1894;51.038;13.692;2023-04-01T23:10:37;10.00;99.90
3758;DHT22;1894;51.038;13.692;2023-04-01T23:13:16;10.00;99.90
3758;DHT22;1894;51.038;13.692;2023-04-01T23:15:46;9.90;99.90
3758;DHT22;1894;51.038;13.692;2023-04-01T23:18:27;9.80;99.90
3758;DHT22;1894;51.038;13.692;2023-04-01T23:27:17;9.60;99.90
3758;DHT22;1894;51.038;13.692;2023-04-01T23:29:48;9.60;99.90
3758;DHT22;1894;51.038;13.692;2023-04-01T23:32:19;9.60;99.90
3758;DHT22;1894;51.038;13.692;2023-04-01T23:34:59;9.50;99.90
3758;DHT22;1894;51.038;13.692;2023-04-01T23:37:27;9.50;99.90
3758;DHT22;1894;51.038;13.692;2023-04-01T23:39:56;9.40;99.90
3758;DHT22;1894;51.038;13.692;2023-04-01T23:42:32;9.40;99.90
3758;DHT22;1894;51.038;13.692;2023-04-01T23:45:14;9.40;99.90
3758;DHT22;1894;51.038;13.692;2023-04-01T23:47:45;9.50;99.90
3758;DHT22;1894;51.038;13.692;2023-04-01T23:50:23;9.40;99.90
3758;DHT22;1894;51.038;13.692;2023-04-01T23:53:57;9.50;99.90
3758;DHT22;1894;51.038;13.692;2023-04-01T23:56:02;9.50;99.90
3758;DHT22;1894;51.038;13.692;2023-04-01T23:58:59;9.40;99.90
